Time;durP1;ratioP1;P1;durP2;ratioP2;P2;SDS_P1;SDS_P2;PMS_P1;PMS_P2;Temp;Humidity;BMP_temperature;BMP_pressure;BME280_temperature;BME280_humidity;BME280_pressure;Samples;Min_cycle;Max_cycle;Signal;HPM_P1;HPM_P2
2022/07/21 00:00:07;;;;;;;22.20;4.47;;;44.10;31.10;;;;;;5041606;28;20058;-65
2022/07/21 00:02:34;;;;;;;22.48;4.30;;;44.10;30.70;;;;;;5041666;28;20527;-64
2022/07/21 00:05:00;;;;;;;21.45;4.43;;;44.00;31.00;;;;;;5043561;28;20135;-64
2022/07/21 00:07:26;;;;;;;35.20;5.50;;;44.10;31.30;;;;;;5043695;28;20520;-64
2022/07/21 00:09:53;;;;;;;32.88;4.97;;;44.00;33.50;;;;;;5045876;28;20410;-64
2022/07/21 00:12:20;;;;;;;28.63;4.93;;;43.90;34.20;;;;;;5041597;28;20061;-65
2022/07/21 00:14:46;;;;;;;43.63;5.45;;;43.80;34.40;;;;;;5040450;28;20163;-65
2022/07/21 00:17:12;;;;;;;37.53;6.50;;;43.80;34.20;;;;;;5042996;28;20036;-65
2022/07/21 00:19:39;;;;;;;33.67;5.72;;;43.70;34.40;;;;;;5041154;28;20036;-65
2022/07/21 00:22:05;;;;;;;29.48;5.32;;;43.60;34.30;;;;;;5060170;28;20075;-65
2022/07/21 00:24:31;;;;;;;28.67;6.40;;;43.70;35.10;;;;;;5042848;28;20040;-65
2022/07/21 00:26:58;;;;;;;22.83;5.22;;;43.70;35.00;;;;;;5041111;28;20037;-64
2022/07/21 00:29:24;;;;;;;43.17;5.85;;;43.60;35.30;;;;;;5050292;28;20119;-67
2022/07/21 00:31:51;;;;;;;26.10;5.60;;;43.60;35.70;;;;;;5040358;28;20077;-64
2022/07/21 00:34:17;;;;;;;32.58;7.20;;;43.50;35.70;;;;;;5039489;28;20046;-67
2022/07/21 00:36:43;;;;;;;19.95;5.32;;;43.50;35.70;;;;;;5040278;28;20227;-65
2022/07/21 00:39:10;;;;;;;40.10;6.20;;;43.50;36.30;;;;;;5043802;28;20048;-64
2022/07/21 00:41:36;;;;;;;41.00;7.32;;;43.30;35.80;;;;;;5043738;28;20428;-67
2022/07/21 00:44:03;;;;;;;28.58;6.38;;;43.30;36.40;;;;;;5042021;28;20055;-64
2022/07/21 00:46:30;;;;;;;37.08;5.72;;;43.30;36.40;;;;;;5059314;28;20075;-64
2022/07/21 00:48:56;;;;;;;33.90;6.60;;;43.20;36.20;;;;;;5046245;28;20038;-65
2022/07/21 00:51:22;;;;;;;25.63;5.35;;;43.10;36.40;;;;;;5041472;28;20038;-66
2022/07/21 00:53:49;;;;;;;47.72;9.68;;;43.10;37.30;;;;;;5043850;28;20045;-63
2022/07/21 00:56:16;;;;;;;25.33;5.40;;;43.10;36.50;;;;;;5041729;28;20121;-66
2022/07/21 00:58:42;;;;;;;30.55;5.85;;;43.10;35.90;;;;;;5040722;28;20076;-66
2022/07/21 01:01:09;;;;;;;26.58;6.45;;;43.00;36.40;;;;;;5059386;28;20059;-67
2022/07/21 01:03:37;;;;;;;29.40;5.75;;;43.00;35.60;;;;;;5057472;28;20039;-64
2022/07/21 01:06:04;;;;;;;29.88;5.88;;;42.90;34.90;;;;;;5041129;28;20047;-64
2022/07/21 01:08:32;;;;;;;29.88;9.27;;;42.80;34.90;;;;;;5039671;28;20070;-65
2022/07/21 01:10:58;;;;;;;25.60;4.68;;;42.70;34.70;;;;;;5056215;28;20058;-64
2022/07/21 01:13:24;;;;;;;21.02;3.83;;;42.70;34.60;;;;;;5043998;28;20676;-66
2022/07/21 01:15:51;;;;;;;22.33;3.30;;;42.60;33.10;;;;;;5044340;28;20062;-64
2022/07/21 01:18:18;;;;;;;30.48;8.07;;;42.60;32.40;;;;;;5055765;28;20519;-64
2022/07/21 01:20:52;;;;;;;23.27;4.43;;;42.60;32.70;;;;;;5041981;28;20100;-67
2022/07/21 01:23:21;;;;;;;22.53;4.10;;;42.60;32.90;;;;;;5041214;28;20050;-65
2022/07/21 01:25:49;;;;;;;14.68;4.05;;;42.50;33.30;;;;;;5040824;28;20097;-65
2022/07/21 01:28:15;;;;;;;23.85;4.75;;;42.50;32.90;;;;;;5042138;28;20074;-66
2022/07/21 01:30:42;;;;;;;31.27;6.07;;;42.50;33.00;;;;;;5033790;28;20043;-64
2022/07/21 01:33:09;;;;;;;24.65;4.53;;;42.30;32.90;;;;;;5039844;28;20383;-66
2022/07/21 01:35:36;;;;;;;20.25;4.97;;;42.30;33.00;;;;;;5040474;28;20068;-67
2022/07/21 01:38:03;;;;;;;19.08;4.10;;;42.30;32.90;;;;;;5042054;28;20046;-64
2022/07/21 01:43:34;;;;;;;17.80;4.22;;;42.20;32.90;;;;;;4988156;28;20044;-65
2022/07/21 01:46:00;;;;;;;18.50;3.83;;;42.30;32.30;;;;;;4997484;28;21099;-65
2022/07/21 01:48:26;;;;;;;19.10;3.53;;;42.20;32.20;;;;;;4970978;28;20042;-65
2022/07/21 01:50:53;;;;;;;17.80;4.78;;;42.20;32.30;;;;;;4973961;28;20385;-65
2022/07/21 01:53:19;;;;;;;20.10;3.83;;;42.20;32.50;;;;;;4975038;28;20039;-65
2022/07/21 01:55:45;;;;;;;25.00;4.50;;;42.20;32.70;;;;;;4986046;28;20450;-67
2022/07/21 01:58:12;;;;;;;26.73;4.28;;;42.20;32.60;;;;;;4976199;28;20406;-65
2022/07/21 02:00:38;;;;;;;24.63;4.30;;;42.10;32.80;;;;;;4991344;28;20528;-65
2022/07/21 02:03:05;;;;;;;16.90;4.40;;;42.10;32.80;;;;;;4993323;28;20081;-67
2022/07/21 02:05:31;;;;;;;17.10;4.80;;;42.00;33.40;;;;;;4998300;28;20061;-63
2022/07/21 02:07:57;;;;;;;30.05;4.80;;;42.10;33.10;;;;;;4984372;28;20150;-67
2022/07/21 02:10:24;;;;;;;26.63;5.55;;;41.90;33.60;;;;;;4984257;28;20403;-65
2022/07/21 02:12:50;;;;;;;22.10;4.50;;;41.80;33.70;;;;;;4978301;28;20063;-68
2022/07/21 02:15:16;;;;;;;22.65;5.55;;;41.70;34.30;;;;;;5039081;28;20055;-66
2022/07/21 02:17:43;;;;;;;24.35;4.15;;;41.60;34.40;;;;;;5044721;28;20083;-65
2022/07/21 02:20:10;;;;;;;20.75;4.63;;;41.50;34.60;;;;;;5042608;28;20109;-65
2022/07/21 02:22:36;;;;;;;19.08;4.22;;;41.40;34.70;;;;;;5060964;28;20083;-67
2022/07/21 02:25:03;;;;;;;22.13;4.20;;;41.40;35.10;;;;;;5060586;28;20438;-66
2022/07/21 02:27:29;;;;;;;21.13;4.85;;;41.30;35.00;;;;;;5044947;28;20431;-67
2022/07/21 02:29:55;;;;;;;26.35;5.30;;;41.20;35.40;;;;;;5057247;28;20105;-67
2022/07/21 02:32:22;;;;;;;14.45;3.97;;;41.10;35.50;;;;;;5037397;28;20075;-65
2022/07/21 02:34:48;;;;;;;18.58;4.70;;;41.00;35.80;;;;;;5044939;28;20060;-66
2022/07/21 02:37:14;;;;;;;23.58;4.88;;;40.90;36.00;;;;;;5046108;28;20056;-65
2022/07/21 02:39:41;;;;;;;27.38;4.90;;;40.80;36.30;;;;;;5059187;28;20064;-66
2022/07/21 02:42:07;;;;;;;27.63;5.32;;;40.70;36.80;;;;;;5047335;28;20109;-65
2022/07/21 02:44:35;;;;;;;26.45;4.32;;;40.60;36.80;;;;;;5048310;28;20115;-65
2022/07/21 02:47:02;;;;;;;24.00;4.75;;;40.60;37.10;;;;;;5045894;28;20068;-65
2022/07/21 02:49:29;;;;;;;28.60;4.93;;;40.50;37.10;;;;;;5042863;28;20601;-65
2022/07/21 02:51:55;;;;;;;28.02;4.93;;;40.40;37.30;;;;;;5043751;28;20487;-64
2022/07/21 02:54:21;;;;;;;31.52;5.38;;;40.30;38.00;;;;;;5046711;28;20396;-65
2022/07/21 02:56:48;;;;;;;40.00;5.90;;;40.20;38.70;;;;;;5059723;28;20068;-67
2022/07/21 02:59:14;;;;;;;31.17;5.20;;;40.20;39.50;;;;;;5059063;28;20595;-65
2022/07/21 03:01:41;;;;;;;31.25;5.20;;;40.10;40.10;;;;;;5060553;28;20453;-67
2022/07/21 03:04:07;;;;;;;40.22;5.88;;;40.00;40.30;;;;;;5044804;28;20501;-66
2022/07/21 03:06:34;;;;;;;27.02;5.47;;;39.90;40.60;;;;;;5044424;28;20054;-64
2022/07/21 03:09:00;;;;;;;34.80;5.40;;;39.90;40.60;;;;;;5045704;28;20095;-67
2022/07/21 03:11:27;;;;;;;42.20;6.03;;;39.80;41.40;;;;;;5047412;28;20459;-65
2022/07/21 03:13:53;;;;;;;22.55;4.60;;;39.70;39.70;;;;;;5046418;28;20058;-67
2022/07/21 03:16:20;;;;;;;25.92;4.20;;;39.70;38.80;;;;;;5042051;28;20052;-64
2022/07/21 03:18:46;;;;;;;16.75;4.10;;;39.60;35.80;;;;;;5062556;28;20051;-64
2022/07/21 03:21:12;;;;;;;20.70;3.28;;;39.60;33.00;;;;;;5045894;28;20059;-67
2022/07/21 03:23:39;;;;;;;15.40;4.53;;;39.50;30.60;;;;;;5044413;28;20051;-64
2022/07/21 03:26:05;;;;;;;12.60;3.50;;;39.50;30.30;;;;;;5046624;28;20050;-65
2022/07/21 03:28:32;;;;;;;14.45;3.55;;;39.40;29.90;;;;;;5063138;28;20142;-65
2022/07/21 03:30:58;;;;;;;11.57;3.13;;;39.40;29.90;;;;;;5040786;28;20054;-64
2022/07/21 03:33:24;;;;;;;19.02;3.33;;;39.30;29.90;;;;;;5041714;28;20130;-63
2022/07/21 03:35:51;;;;;;;19.60;3.22;;;39.30;29.20;;;;;;5061894;28;20146;-66
2022/07/21 03:38:17;;;;;;;15.63;3.70;;;39.30;27.70;;;;;;5047531;28;20062;-65
2022/07/21 03:40:43;;;;;;;21.92;3.58;;;39.30;28.80;;;;;;5049945;28;20091;-66
2022/07/21 03:43:10;;;;;;;93.35;10.35;;;39.30;28.30;;;;;;5064600;28;20055;-68
2022/07/21 03:45:37;;;;;;;41.97;5.78;;;39.20;37.70;;;;;;5064243;28;20116;-69
2022/07/21 03:48:06;;;;;;;31.17;4.97;;;38.40;55.20;;;;;;5047393;28;20060;-67
2022/07/21 03:50:33;;;;;;;28.30;5.10;;;37.40;45.60;;;;;;5044175;28;20416;-67
2022/07/21 03:53:00;;;;;;;34.45;5.88;;;36.90;48.70;;;;;;5066847;28;20059;-69
2022/07/21 03:55:27;;;;;;;38.95;6.25;;;36.70;48.80;;;;;;5047164;28;20092;-67
2022/07/21 03:57:56;;;;;;;34.25;6.20;;;36.70;50.40;;;;;;5045725;28;20063;-67
2022/07/21 04:00:36;;;;;;;46.83;7.45;;;36.70;50.60;;;;;;5046264;28;20490;-69
2022/07/21 04:03:04;;;;;;;47.33;6.82;;;36.70;53.20;;;;;;5046382;28;20067;-69
2022/07/21 04:05:30;;;;;;;37.03;5.97;;;36.70;52.90;;;;;;5044109;28;20084;-67
2022/07/21 04:07:57;;;;;;;30.63;5.50;;;36.70;51.80;;;;;;5063612;28;20066;-67
2022/07/21 04:10:26;;;;;;;32.88;4.75;;;36.70;52.90;;;;;;5047910;28;20064;-69
2022/07/21 04:12:53;;;;;;;37.17;5.65;;;36.70;54.70;;;;;;5047434;28;20070;-67
2022/07/21 04:15:20;;;;;;;31.60;5.07;;;36.70;53.50;;;;;;5043037;28;20070;-69
2022/07/21 04:17:48;;;;;;;30.05;5.03;;;36.70;53.30;;;;;;5050691;28;20063;-71
2022/07/21 04:20:15;;;;;;;28.95;5.15;;;36.70;52.00;;;;;;5045953;28;20531;-68
2022/07/21 04:22:44;;;;;;;41.65;5.70;;;36.70;52.00;;;;;;5063254;28;20427;-69
2022/07/21 04:25:12;;;;;;;41.05;6.50;;;36.70;53.00;;;;;;5042044;28;20138;-70
2022/07/21 04:27:38;;;;;;;34.83;6.68;;;36.70;52.90;;;;;;5059325;28;20159;-70
2022/07/21 04:30:07;;;;;;;33.70;6.22;;;36.70;53.80;;;;;;5042407;28;20062;-67
2022/07/21 04:32:33;;;;;;;37.70;6.78;;;36.70;52.80;;;;;;5038661;28;20084;-71
2022/07/21 04:34:59;;;;;;;36.85;6.40;;;36.80;53.20;;;;;;5038126;28;20111;-68
2022/07/21 04:37:27;;;;;;;41.38;6.53;;;36.80;53.80;;;;;;5041745;28;20067;-68
2022/07/21 04:39:53;;;;;;;33.95;6.38;;;36.70;53.60;;;;;;5043890;28;20076;-68
2022/07/21 04:42:20;;;;;;;35.15;5.72;;;36.70;53.10;;;;;;5042742;28;20157;-69
2022/07/21 04:44:46;;;;;;;28.25;6.25;;;36.70;52.80;;;;;;5057775;28;20070;-69
2022/07/21 04:47:13;;;;;;;35.42;5.55;;;36.70;52.40;;;;;;5041633;28;20079;-69
2022/07/21 04:49:39;;;;;;;24.85;5.30;;;36.70;52.00;;;;;;5057002;28;20070;-67
2022/07/21 04:52:06;;;;;;;26.67;5.60;;;36.70;52.50;;;;;;5043605;28;20081;-68
2022/07/21 04:54:32;;;;;;;26.35;5.15;;;36.70;52.10;;;;;;5040626;28;20066;-67
2022/07/21 04:57:02;;;;;;;28.65;5.28;;;36.70;50.70;;;;;;5043708;28;20092;-68
2022/07/21 04:59:29;;;;;;;28.27;5.47;;;36.60;50.20;;;;;;5042075;28;20081;-69
2022/07/21 05:01:56;;;;;;;35.97;6.05;;;36.70;49.50;;;;;;5043788;28;20198;-68
2022/07/21 05:04:22;;;;;;;37.92;6.03;;;36.70;50.60;;;;;;5045211;28;20092;-68
2022/07/21 05:06:49;;;;;;;21.65;5.85;;;36.60;50.20;;;;;;5057875;28;20066;-68
2022/07/21 05:09:15;;;;;;;34.25;6.45;;;36.60;50.20;;;;;;5042253;28;20067;-69
2022/07/21 05:11:42;;;;;;;29.23;6.35;;;36.60;50.20;;;;;;5056577;28;20118;-68
2022/07/21 05:14:08;;;;;;;33.53;6.72;;;36.50;50.80;;;;;;5045218;28;20076;-68
2022/07/21 05:16:35;;;;;;;30.27;5.38;;;36.50;50.50;;;;;;5039933;28;20447;-67
2022/07/21 05:19:01;;;;;;;21.48;5.15;;;36.50;50.70;;;;;;5062674;28;20093;-66
2022/07/21 05:21:28;;;;;;;22.25;5.07;;;36.40;50.10;;;;;;5043902;28;20560;-68
2022/07/21 05:23:54;;;;;;;33.40;4.93;;;36.40;50.30;;;;;;5059594;28;20101;-67
2022/07/21 05:26:21;;;;;;;23.70;5.45;;;36.30;50.10;;;;;;5058247;28;20444;-69
2022/07/21 05:28:47;;;;;;;31.25;5.05;;;36.30;50.30;;;;;;5028507;28;20081;-68
2022/07/21 05:31:14;;;;;;;31.50;5.05;;;36.20;50.40;;;;;;5060180;28;20091;-68
2022/07/21 05:33:40;;;;;;;22.05;4.25;;;36.20;50.10;;;;;;5046565;28;20070;-68
2022/07/21 05:36:07;;;;;;;22.88;4.38;;;36.20;50.70;;;;;;5062045;28;20183;-68
2022/07/21 05:38:33;;;;;;;20.95;3.40;;;36.00;50.20;;;;;;5045209;28;20109;-69
2022/07/21 05:41:00;;;;;;;15.52;4.13;;;36.00;50.50;;;;;;5045967;28;20091;-68
2022/07/21 05:43:26;;;;;;;22.50;3.55;;;35.90;51.80;;;;;;5044337;28;20069;-69
2022/07/21 05:45:53;;;;;;;20.75;3.35;;;35.80;51.00;;;;;;5028681;28;20075;-68
2022/07/21 05:48:19;;;;;;;14.48;3.35;;;35.80;51.30;;;;;;5046805;28;21555;-67
2022/07/21 05:50:46;;;;;;;17.42;3.30;;;35.80;51.40;;;;;;5059559;28;20099;-67
2022/07/21 05:53:12;;;;;;;15.85;3.55;;;35.80;51.80;;;;;;5046602;28;20107;-68
2022/07/21 05:55:38;;;;;;;16.33;3.03;;;35.70;51.70;;;;;;5045237;28;20087;-66
2022/07/21 05:58:05;;;;;;;22.67;3.80;;;35.70;52.20;;;;;;5045610;28;20607;-69
2022/07/21 06:00:31;;;;;;;14.70;3.08;;;35.70;52.30;;;;;;5058024;28;20545;-68
2022/07/21 06:02:58;;;;;;;17.20;3.38;;;35.70;52.30;;;;;;5042857;28;20075;-69
2022/07/21 06:05:24;;;;;;;16.10;3.63;;;35.70;52.50;;;;;;5045448;28;20069;-68
2022/07/21 06:07:50;;;;;;;15.07;4.20;;;35.60;52.30;;;;;;5044624;28;20078;-67
2022/07/21 06:10:17;;;;;;;23.23;4.30;;;35.50;52.60;;;;;;5048145;28;20435;-69
2022/07/21 06:12:44;;;;;;;17.02;4.50;;;35.50;52.70;;;;;;5063100;28;20120;-66
2022/07/21 06:15:11;;;;;;;20.67;4.75;;;35.50;53.30;;;;;;5048453;28;20127;-70
2022/07/21 06:17:45;;;;;;;22.50;5.03;;;35.40;53.50;;;;;;5044508;28;20560;-66
2022/07/21 06:20:13;;;;;;;34.50;5.65;;;35.50;53.30;;;;;;5044420;28;20092;-68
2022/07/21 06:22:39;;;;;;;23.23;5.30;;;35.40;53.20;;;;;;5053262;28;20068;-65
2022/07/21 06:25:08;;;;;;;18.63;4.63;;;35.40;54.00;;;;;;5043663;28;20648;-66
2022/07/21 06:27:34;;;;;;;20.13;4.65;;;35.40;54.60;;;;;;5046809;28;20067;-64
2022/07/21 06:30:01;;;;;;;18.92;4.60;;;35.30;54.20;;;;;;5046492;28;20079;-64
2022/07/21 06:32:27;;;;;;;22.13;3.90;;;35.30;54.50;;;;;;5031865;28;20067;-64
2022/07/21 06:34:54;;;;;;;32.28;3.97;;;35.30;54.10;;;;;;5044868;28;20520;-64
2022/07/21 06:37:21;;;;;;;17.60;3.35;;;35.20;53.90;;;;;;5046246;28;20171;-64
2022/07/21 06:39:47;;;;;;;26.13;4.50;;;35.20;54.10;;;;;;5030422;28;20091;-65
2022/07/21 06:42:14;;;;;;;30.27;3.83;;;35.20;54.10;;;;;;5063281;28;20071;-64
2022/07/21 06:44:40;;;;;;;26.70;4.07;;;35.20;54.20;;;;;;5046569;28;20424;-63
2022/07/21 06:47:07;;;;;;;21.40;3.72;;;35.10;54.10;;;;;;5046050;28;20698;-67
2022/07/21 06:49:33;;;;;;;23.40;3.90;;;35.10;54.10;;;;;;5045116;28;20075;-66
2022/07/21 06:52:00;;;;;;;18.83;3.75;;;35.10;55.20;;;;;;5043696;28;20171;-64
2022/07/21 06:54:26;;;;;;;23.63;4.88;;;35.10;54.70;;;;;;5061664;28;20122;-63
2022/07/21 06:56:53;;;;;;;26.15;4.82;;;35.10;54.80;;;;;;5045488;28;20081;-64
2022/07/21 06:59:19;;;;;;;19.23;5.38;;;35.00;55.30;;;;;;5044396;28;20075;-64
2022/07/21 07:01:45;;;;;;;29.58;5.05;;;35.00;55.00;;;;;;5046330;28;20098;-64
2022/07/21 07:04:12;;;;;;;26.50;5.20;;;35.00;54.70;;;;;;5045380;28;20148;-70
2022/07/21 07:06:38;;;;;;;26.63;5.07;;;34.90;54.70;;;;;;5045122;28;20483;-65
2022/07/21 07:09:05;;;;;;;26.67;4.50;;;34.90;55.00;;;;;;5045567;28;20468;-67
2022/07/21 07:11:33;;;;;;;26.25;5.00;;;34.90;55.50;;;;;;5026298;28;20081;-64
2022/07/21 07:13:59;;;;;;;23.88;5.13;;;34.80;54.90;;;;;;5043138;28;20583;-66
2022/07/21 07:16:25;;;;;;;31.63;5.00;;;34.80;54.90;;;;;;5044963;28;20422;-64
2022/07/21 07:18:52;;;;;;;19.65;5.03;;;34.80;54.60;;;;;;5059781;28;20145;-65
2022/07/21 07:21:18;;;;;;;22.00;4.93;;;34.80;55.00;;;;;;5061883;28;20081;-67
2022/07/21 07:23:44;;;;;;;25.90;4.47;;;34.80;53.50;;;;;;5033918;28;20070;-65
2022/07/21 07:26:11;;;;;;;26.85;5.05;;;34.80;52.90;;;;;;5029181;28;20180;-65
2022/07/21 07:28:37;;;;;;;28.05;4.97;;;34.80;53.00;;;;;;5060805;28;20094;-67
2022/07/21 07:31:03;;;;;;;28.05;4.80;;;34.80;53.60;;;;;;5064607;28;20065;-63
2022/07/21 07:33:30;;;;;;;25.42;4.22;;;34.80;52.60;;;;;;5063497;28;20071;-65
2022/07/21 07:35:57;;;;;;;18.58;3.80;;;34.80;49.30;;;;;;5046404;28;20171;-64
2022/07/21 07:38:23;;;;;;;18.90;3.55;;;34.80;46.40;;;;;;5061818;28;20096;-64
2022/07/21 07:40:49;;;;;;;11.27;2.95;;;34.70;44.60;;;;;;5068181;28;20095;-64
2022/07/21 07:43:16;;;;;;;12.98;3.00;;;34.70;43.30;;;;;;5046369;28;20075;-66
2022/07/21 07:45:42;;;;;;;16.42;3.33;;;34.70;42.50;;;;;;5044491;28;20062;-65
2022/07/21 07:48:08;;;;;;;15.07;2.95;;;34.70;42.10;;;;;;5046048;28;20530;-65
2022/07/21 07:50:35;;;;;;;17.52;6.68;;;34.70;41.30;;;;;;5043506;28;20070;-65
2022/07/21 07:53:01;;;;;;;37.67;27.75;;;34.70;41.10;;;;;;5045919;28;20075;-65
2022/07/21 07:55:28;;;;;;;21.83;10.73;;;34.60;42.10;;;;;;5064146;28;20080;-63
2022/07/21 07:57:54;;;;;;;15.43;3.35;;;34.60;42.60;;;;;;5042785;28;20094;-65
2022/07/21 08:00:21;;;;;;;11.75;3.00;;;34.60;42.70;;;;;;5058878;28;20153;-64
2022/07/21 08:02:47;;;;;;;16.65;3.35;;;34.60;42.00;;;;;;5044398;28;20658;-64
2022/07/21 08:05:14;;;;;;;12.50;3.13;;;34.60;43.40;;;;;;5046218;28;20096;-64
2022/07/21 08:07:40;;;;;;;14.68;2.92;;;34.50;42.80;;;;;;5049582;28;20073;-65
2022/07/21 08:10:09;;;;;;;13.20;2.70;;;34.50;41.40;;;;;;5044539;28;20068;-64
2022/07/21 08:12:37;;;;;;;16.45;3.35;;;34.40;41.40;;;;;;5066516;28;20084;-62
2022/07/21 08:15:04;;;;;;;14.13;3.00;;;34.40;40.90;;;;;;5045780;28;20527;-66
2022/07/21 08:17:31;;;;;;;12.75;2.30;;;34.30;41.00;;;;;;5042732;28;20095;-65
2022/07/21 08:19:58;;;;;;;10.43;2.60;;;34.30;41.10;;;;;;5045001;28;20078;-65
2022/07/21 08:22:24;;;;;;;11.75;2.70;;;34.30;39.50;;;;;;5063609;28;20096;-64
2022/07/21 08:24:50;;;;;;;11.65;2.50;;;34.20;40.20;;;;;;5041690;28;20101;-64
2022/07/21 08:27:17;;;;;;;15.20;2.78;;;34.20;41.10;;;;;;5040862;28;20145;-66
2022/07/21 08:29:43;;;;;;;18.60;3.25;;;34.20;41.00;;;;;;5030504;28;20155;-64
2022/07/21 08:32:09;;;;;;;13.00;2.92;;;34.10;41.10;;;;;;5062773;28;20075;-65
2022/07/21 08:34:36;;;;;;;13.75;2.70;;;34.10;41.50;;;;;;5061622;28;20072;-65
2022/07/21 08:37:03;;;;;;;17.67;3.22;;;34.00;41.80;;;;;;5044387;28;20620;-64
2022/07/21 08:39:29;;;;;;;14.57;3.20;;;34.00;42.10;;;;;;5059285;28;20087;-67
2022/07/21 08:41:55;;;;;;;10.57;2.83;;;34.00;43.50;;;;;;5064550;28;20137;-64
2022/07/21 08:44:22;;;;;;;13.38;2.50;;;33.90;42.70;;;;;;5033450;28;20083;-64
2022/07/21 08:46:51;;;;;;;10.15;2.65;;;33.90;42.10;;;;;;5044635;28;20068;-64
2022/07/21 08:49:21;;;;;;;15.90;3.10;;;33.90;41.40;;;;;;5044491;28;20086;-65
2022/07/21 08:51:49;;;;;;;12.45;2.95;;;33.90;41.10;;;;;;5062611;28;20107;-64
2022/07/21 08:54:16;;;;;;;12.13;2.85;;;33.90;41.30;;;;;;5045872;28;20076;-65
2022/07/21 08:56:42;;;;;;;12.02;3.13;;;33.90;40.90;;;;;;5061078;28;20125;-64
2022/07/21 08:59:08;;;;;;;12.25;2.70;;;33.90;41.30;;;;;;5045620;28;20166;-65
2022/07/21 09:01:37;;;;;;;13.70;3.42;;;33.80;40.90;;;;;;5065260;28;20107;-66
2022/07/21 09:04:23;;;;;;;10.55;2.90;;;33.80;41.00;;;;;;5049579;28;20068;-65
2022/07/21 09:06:57;;;;;;;14.43;2.83;;;33.80;41.40;;;;;;5064857;28;20064;-65
2022/07/21 09:09:25;;;;;;;8.57;2.47;;;33.70;41.60;;;;;;5051203;28;20167;-64
2022/07/21 09:11:53;;;;;;;13.80;3.05;;;33.70;41.60;;;;;;5063385;28;20087;-64
2022/07/21 09:14:26;;;;;;;8.80;2.53;;;33.60;41.30;;;;;;5070441;28;20092;-63
2022/07/21 09:16:57;;;;;;;16.45;3.38;;;33.60;41.80;;;;;;5068609;28;20076;-64
2022/07/21 09:19:26;;;;;;;19.45;4.75;;;33.60;43.20;;;;;;5063073;28;20072;-64
2022/07/21 09:21:54;;;;;;;20.35;4.93;;;33.70;48.20;;;;;;5066124;28;20122;-64
2022/07/21 09:24:26;;;;;;;16.73;5.03;;;33.70;50.40;;;;;;5014373;28;20116;-64
2022/07/21 09:27:04;;;;;;;20.88;5.47;;;33.60;52.90;;;;;;5025513;28;20083;-63
2022/07/21 09:29:53;;;;;;;24.10;5.85;;;33.60;53.70;;;;;;5049254;28;20075;-66
2022/07/21 09:32:27;;;;;;;13.63;4.53;;;33.60;53.90;;;;;;5063187;28;20433;-64
2022/07/21 09:35:04;;;;;;;21.60;3.95;;;33.60;50.70;;;;;;5032113;28;20170;-64
2022/07/21 09:37:32;;;;;;;14.00;3.80;;;33.50;49.20;;;;;;5047336;28;20110;-65
2022/07/21 09:40:04;;;;;;;10.48;3.20;;;33.50;47.50;;;;;;5067987;28;20088;-65
2022/07/21 09:42:33;;;;;;;15.80;3.65;;;33.50;47.90;;;;;;5065839;28;20067;-64
2022/07/21 09:45:03;;;;;;;20.15;3.95;;;33.50;48.50;;;;;;5048055;28;20078;-66
2022/07/21 09:47:30;;;;;;;15.35;3.13;;;33.40;48.40;;;;;;5049177;28;20079;-64
2022/07/21 09:49:58;;;;;;;23.23;4.22;;;33.40;48.80;;;;;;5045762;28;20091;-63
2022/07/21 09:52:39;;;;;;;16.45;3.70;;;33.40;49.30;;;;;;5047744;28;20113;-63
2022/07/21 09:55:11;;;;;;;9.65;3.20;;;33.40;49.70;;;;;;5032591;28;20110;-64
2022/07/21 09:57:39;;;;;;;9.65;3.40;;;33.30;50.20;;;;;;5031535;28;20088;-64
2022/07/21 10:00:08;;;;;;;15.48;4.03;;;33.30;50.10;;;;;;5048224;28;20072;-64
2022/07/21 10:02:35;;;;;;;14.48;3.40;;;33.20;49.40;;;;;;5050414;28;20068;-66
2022/07/21 10:05:15;;;;;;;19.85;3.80;;;33.20;49.40;;;;;;5047421;28;20121;-63
2022/07/21 10:07:45;;;;;;;13.95;3.60;;;33.20;49.30;;;;;;5013255;28;20071;-63
2022/07/21 10:10:12;;;;;;;16.70;3.47;;;33.10;48.20;;;;;;5047887;28;20096;-64
2022/07/21 10:12:39;;;;;;;14.30;3.83;;;33.10;49.20;;;;;;5030892;28;20490;-64
2022/07/21 10:15:06;;;;;;;14.95;4.00;;;33.10;49.40;;;;;;5064588;28;20521;-64
2022/07/21 10:17:32;;;;;;;23.17;4.95;;;33.10;49.70;;;;;;5048255;28;20158;-64
2022/07/21 10:20:34;;;;;;;12.32;4.35;;;33.10;49.60;;;;;;5064163;28;20091;-65
2022/07/21 10:23:14;;;;;;;14.35;4.20;;;33.00;48.00;;;;;;5048432;28;20202;-64
2022/07/21 10:25:43;;;;;;;18.20;4.40;;;33.00;48.70;;;;;;5031108;28;20161;-64
2022/07/21 10:28:12;;;;;;;9.93;3.63;;;32.90;48.30;;;;;;5022139;28;20106;-65
2022/07/21 10:30:49;;;;;;;15.73;3.75;;;33.00;48.20;;;;;;5044395;28;20076;-64
2022/07/21 10:33:19;;;;;;;18.88;3.80;;;32.90;47.70;;;;;;5045275;28;20137;-65
2022/07/21 10:35:47;;;;;;;21.52;5.18;;;32.90;50.90;;;;;;5044349;28;20116;-65
2022/07/21 10:38:29;;;;;;;20.05;4.97;;;32.90;53.30;;;;;;5048973;28;20167;-66
2022/07/21 10:40:57;;;;;;;18.35;4.88;;;32.80;54.20;;;;;;5048956;28;20546;-65
2022/07/21 10:43:36;;;;;;;15.35;4.35;;;32.80;53.50;;;;;;5046764;28;20543;-65
2022/07/21 10:46:02;;;;;;;26.63;5.45;;;32.70;53.60;;;;;;5067595;28;20063;-65
2022/07/21 10:48:39;;;;;;;19.83;5.40;;;32.70;55.10;;;;;;5060215;28;20479;-65
2022/07/21 10:51:13;;;;;;;18.75;4.90;;;32.60;59.80;;;;;;5065710;28;20082;-64
2022/07/21 10:53:40;;;;;;;22.50;5.38;;;32.60;61.20;;;;;;5046346;28;20080;-65
2022/07/21 10:56:08;;;;;;;21.55;4.60;;;32.60;62.30;;;;;;5047108;28;20437;-65
2022/07/21 10:58:38;;;;;;;17.15;4.80;;;32.50;63.40;;;;;;5044976;28;20538;-65
2022/07/21 11:01:20;;;;;;;18.00;4.30;;;32.50;64.70;;;;;;5043838;28;20106;-65
2022/07/21 11:04:05;;;;;;;15.18;4.88;;;32.50;65.40;;;;;;5037970;28;20106;-65
2022/07/21 11:06:32;;;;;;;21.77;4.47;;;32.50;66.20;;;;;;5048514;28;20075;-65
2022/07/21 11:09:05;;;;;;;22.23;5.15;;;32.40;67.20;;;;;;5066434;28;20414;-67
2022/07/21 11:11:51;;;;;;;20.55;4.88;;;32.40;68.10;;;;;;5047974;28;20083;-65
2022/07/21 11:14:20;;;;;;;22.13;5.60;;;32.40;68.80;;;;;;5044907;28;20492;-65
2022/07/21 11:16:48;;;;;;;16.15;4.30;;;32.40;69.80;;;;;;5064987;28;20491;-65
2022/07/21 11:19:39;;;;;;;22.15;5.28;;;32.40;69.50;;;;;;5044070;28;20072;-65
2022/07/21 11:22:19;;;;;;;12.30;4.32;;;32.40;70.10;;;;;;5063422;28;20092;-64
2022/07/21 11:24:47;;;;;;;21.85;5.18;;;32.40;71.50;;;;;;5062526;28;20578;-65
2022/07/21 11:27:15;;;;;;;21.63;5.32;;;32.30;72.10;;;;;;5060384;28;20149;-65
2022/07/21 11:29:44;;;;;;;18.67;5.20;;;32.20;73.10;;;;;;5037094;28;20601;-65
2022/07/21 11:32:12;;;;;;;19.85;5.38;;;32.20;74.60;;;;;;5045826;28;20075;-65
2022/07/21 11:34:57;;;;;;;24.20;5.03;;;32.20;75.20;;;;;;5046909;28;20099;-65
2022/07/21 11:37:34;;;;;;;19.23;5.60;;;32.20;76.20;;;;;;5043936;28;20605;-65
2022/07/21 11:40:03;;;;;;;19.75;5.32;;;32.20;78.20;;;;;;5047463;28;20109;-65
2022/07/21 11:42:30;;;;;;;19.42;5.25;;;32.00;80.30;;;;;;5061973;28;20063;-65
2022/07/21 11:44:57;;;;;;;17.30;4.97;;;32.00;82.50;;;;;;5061327;28;20074;-65
2022/07/21 11:47:25;;;;;;;15.73;4.35;;;31.90;83.60;;;;;;5032115;28;20065;-65
2022/07/21 11:49:57;;;;;;;12.45;3.42;;;31.90;84.40;;;;;;5045390;28;20076;-65
2022/07/21 11:52:29;;;;;;;17.38;3.50;;;31.80;85.00;;;;;;5064330;28;20071;-65
2022/07/21 11:54:57;;;;;;;13.38;4.03;;;31.90;85.80;;;;;;5044475;28;20068;-66
2022/07/21 11:57:25;;;;;;;19.92;4.75;;;31.80;86.30;;;;;;5045436;28;20064;-64
2022/07/21 11:59:53;;;;;;;13.75;3.40;;;31.80;86.90;;;;;;5060908;28;20155;-65
2022/07/21 12:02:22;;;;;;;17.65;3.70;;;31.90;87.30;;;;;;5046884;28;20562;-65
2022/07/21 12:04:49;;;;;;;14.38;3.95;;;31.80;87.40;;;;;;5048645;28;20126;-65
2022/07/21 12:07:43;;;;;;;118.30;9.15;;;31.80;87.70;;;;;;5029371;28;20087;-65
2022/07/21 12:10:37;;;;;;;14.93;3.70;;;31.80;88.50;;;;;;5033179;28;20534;-64
2022/07/21 12:13:06;;;;;;;13.10;3.88;;;31.70;89.10;;;;;;5044706;28;20458;-65
2022/07/21 12:15:37;;;;;;;17.20;3.90;;;31.70;89.40;;;;;;5044837;28;20582;-65
2022/07/21 12:18:06;;;;;;;25.58;5.22;;;31.70;90.00;;;;;;5045389;28;20100;-65
2022/07/21 12:20:40;;;;;;;19.15;4.60;;;31.60;90.30;;;;;;5061799;28;20091;-67
2022/07/21 12:23:22;;;;;;;18.40;5.03;;;31.70;90.50;;;;;;5062008;28;20529;-65
2022/07/21 12:25:48;;;;;;;18.77;5.18;;;31.70;90.60;;;;;;5039754;28;20497;-65
2022/07/21 12:28:15;;;;;;;16.95;4.82;;;31.80;90.50;;;;;;5026077;28;20076;-65
2022/07/21 12:30:49;;;;;;;14.55;4.05;;;31.70;90.40;;;;;;5048241;28;20076;-66
2022/07/21 12:33:17;;;;;;;18.63;4.80;;;31.60;90.60;;;;;;5040002;28;20128;-65
2022/07/21 12:35:48;;;;;;;19.23;4.78;;;31.50;90.80;;;;;;5057123;28;20209;-64
2022/07/21 12:38:18;;;;;;;13.82;4.25;;;31.50;91.10;;;;;;5024027;28;20080;-67
2022/07/21 12:40:47;;;;;;;20.63;4.65;;;31.50;91.20;;;;;;5042574;28;20087;-65
2022/07/21 12:43:19;;;;;;;20.13;4.78;;;31.50;91.00;;;;;;5042845;28;20071;-64